sensor_id;sensor_type;location;lat;lon;timestamp;P1;durP1;ratioP1;P2;durP2;ratioP2
6551;SDS011;3309;48.708;9.290;2023-10-09T00:01:25;0.60;;;0.60;;
6551;SDS011;3309;48.708;9.290;2023-10-09T00:03:51;0.53;;;0.53;;
6551;SDS011;3309;48.708;9.290;2023-10-09T00:06:21;0.60;;;0.60;;
6551;SDS011;3309;48.708;9.290;2023-10-09T00:09:02;0.50;;;0.50;;
6551;SDS011;3309;48.708;9.290;2023-10-09T00:11:36;0.50;;;0.50;;
6551;SDS011;3309;48.708;9.290;2023-10-09T00:14:06;0.50;;;0.50;;
6551;SDS011;3309;48.708;9.290;2023-10-09T00:16:32;0.50;;;0.50;;
6551;SDS011;3309;48.708;9.290;2023-10-09T00:19:00;0.43;;;0.43;;
6551;SDS011;3309;48.708;9.290;2023-10-09T00:21:42;0.50;;;0.50;;
6551;SDS011;3309;48.708;9.290;2023-10-09T00:24:08;0.47;;;0.47;;
6551;SDS011;3309;48.708;9.290;2023-10-09T00:27:03;0.47;;;0.47;;
6551;SDS011;3309;48.708;9.290;2023-10-09T00:29:46;0.50;;;0.50;;
6551;SDS011;3309;48.708;9.290;2023-10-09T00:32:13;0.50;;;0.50;;
6551;SDS011;3309;48.708;9.290;2023-10-09T00:34:52;0.53;;;0.53;;
6551;SDS011;3309;48.708;9.290;2023-10-09T00:37:23;0.60;;;0.60;;
6551;SDS011;3309;48.708;9.290;2023-10-09T00:39:51;0.50;;;0.50;;
6551;SDS011;3309;48.708;9.290;2023-10-09T00:42:26;0.50;;;0.50;;
6551;SDS011;3309;48.708;9.290;2023-10-09T00:44:57;0.50;;;0.50;;
6551;SDS011;3309;48.708;9.290;2023-10-09T00:47:29;0.67;;;0.67;;
6551;SDS011;3309;48.708;9.290;2023-10-09T00:50:02;0.50;;;0.50;;
6551;SDS011;3309;48.708;9.290;2023-10-09T00:52:36;0.60;;;0.60;;
6551;SDS011;3309;48.708;9.290;2023-10-09T00:55:10;0.50;;;0.50;;
6551;SDS011;3309;48.708;9.290;2023-10-09T00:57:45;0.70;;;0.70;;
6551;SDS011;3309;48.708;9.290;2023-10-09T01:00:21;0.50;;;0.50;;
6551;SDS011;3309;48.708;9.290;2023-10-09T01:02:57;0.70;;;0.70;;
6551;SDS011;3309;48.708;9.290;2023-10-09T01:05:36;0.60;;;0.60;;
6551;SDS011;3309;48.708;9.290;2023-10-09T01:08:04;0.70;;;0.70;;
6551;SDS011;3309;48.708;9.290;2023-10-09T01:10:50;0.60;;;0.60;;
6551;SDS011;3309;48.708;9.290;2023-10-09T01:13:21;0.67;;;0.67;;
6551;SDS011;3309;48.708;9.290;2023-10-09T01:15:52;0.50;;;0.50;;
6551;SDS011;3309;48.708;9.290;2023-10-09T01:18:18;0.50;;;0.50;;
6551;SDS011;3309;48.708;9.290;2023-10-09T01:20:45;0.60;;;0.60;;
6551;SDS011;3309;48.708;9.290;2023-10-09T01:23:11;0.50;;;0.50;;
6551;SDS011;3309;48.708;9.290;2023-10-09T01:25:37;0.40;;;0.40;;
6551;SDS011;3309;48.708;9.290;2023-10-09T01:28:14;0.60;;;0.60;;
6551;SDS011;3309;48.708;9.290;2023-10-09T01:30:41;0.60;;;0.60;;
6551;SDS011;3309;48.708;9.290;2023-10-09T01:33:07;0.50;;;0.50;;
6551;SDS011;3309;48.708;9.290;2023-10-09T01:35:47;0.60;;;0.60;;
6551;SDS011;3309;48.708;9.290;2023-10-09T01:38:15;0.70;;;0.70;;
6551;SDS011;3309;48.708;9.290;2023-10-09T01:40:41;0.70;;;0.70;;
6551;SDS011;3309;48.708;9.290;2023-10-09T01:43:09;0.70;;;0.70;;
6551;SDS011;3309;48.708;9.290;2023-10-09T01:45:35;0.60;;;0.60;;
6551;SDS011;3309;48.708;9.290;2023-10-09T01:48:12;0.60;;;0.60;;
6551;SDS011;3309;48.708;9.290;2023-10-09T01:50:40;0.60;;;0.60;;
6551;SDS011;3309;48.708;9.290;2023-10-09T01:53:07;0.60;;;0.60;;
6551;SDS011;3309;48.708;9.290;2023-10-09T01:55:33;0.50;;;0.50;;
6551;SDS011;3309;48.708;9.290;2023-10-09T01:58:00;0.60;;;0.60;;
6551;SDS011;3309;48.708;9.290;2023-10-09T02:00:31;0.50;;;0.50;;
6551;SDS011;3309;48.708;9.290;2023-10-09T02:03:00;0.60;;;0.60;;
6551;SDS011;3309;48.708;9.290;2023-10-09T02:05:30;0.50;;;0.50;;
6551;SDS011;3309;48.708;9.290;2023-10-09T02:08:01;0.60;;;0.60;;
6551;SDS011;3309;48.708;9.290;2023-10-09T02:10:29;0.70;;;0.70;;
6551;SDS011;3309;48.708;9.290;2023-10-09T02:13:02;0.60;;;0.60;;
6551;SDS011;3309;48.708;9.290;2023-10-09T02:15:39;0.60;;;0.60;;
6551;SDS011;3309;48.708;9.290;2023-10-09T02:18:09;0.60;;;0.60;;
6551;SDS011;3309;48.708;9.290;2023-10-09T02:21:21;0.60;;;0.60;;
6551;SDS011;3309;48.708;9.290;2023-10-09T02:23:40;0.60;;;0.60;;
6551;SDS011;3309;48.708;9.290;2023-10-09T02:26:09;0.70;;;0.70;;
6551;SDS011;3309;48.708;9.290;2023-10-09T02:28:42;0.60;;;0.60;;
6551;SDS011;3309;48.708;9.290;2023-10-09T02:31:12;0.60;;;0.60;;
6551;SDS011;3309;48.708;9.290;2023-10-09T02:33:38;0.70;;;0.70;;
6551;SDS011;3309;48.708;9.290;2023-10-09T02:36:05;0.60;;;0.60;;
6551;SDS011;3309;48.708;9.290;2023-10-09T02:38:31;0.70;;;0.70;;
6551;SDS011;3309;48.708;9.290;2023-10-09T02:41:02;0.60;;;0.60;;
6551;SDS011;3309;48.708;9.290;2023-10-09T02:43:28;0.67;;;0.67;;
6551;SDS011;3309;48.708;9.290;2023-10-09T02:46:06;0.73;;;0.73;;
6551;SDS011;3309;48.708;9.290;2023-10-09T02:48:48;0.60;;;0.60;;
6551;SDS011;3309;48.708;9.290;2023-10-09T02:51:20;0.60;;;0.60;;
6551;SDS011;3309;48.708;9.290;2023-10-09T02:53:58;0.60;;;0.60;;
6551;SDS011;3309;48.708;9.290;2023-10-09T02:56:25;0.53;;;0.53;;
6551;SDS011;3309;48.708;9.290;2023-10-09T02:59:08;0.60;;;0.60;;
6551;SDS011;3309;48.708;9.290;2023-10-09T03:01:34;0.60;;;0.60;;
6551;SDS011;3309;48.708;9.290;2023-10-09T03:04:02;0.60;;;0.60;;
6551;SDS011;3309;48.708;9.290;2023-10-09T03:06:28;0.60;;;0.60;;
6551;SDS011;3309;48.708;9.290;2023-10-09T03:08:57;0.60;;;0.60;;
6551;SDS011;3309;48.708;9.290;2023-10-09T03:11:23;0.50;;;0.50;;
6551;SDS011;3309;48.708;9.290;2023-10-09T03:13:51;0.60;;;0.60;;
6551;SDS011;3309;48.708;9.290;2023-10-09T03:16:18;0.60;;;0.60;;
6551;SDS011;3309;48.708;9.290;2023-10-09T03:18:49;0.50;;;0.50;;
6551;SDS011;3309;48.708;9.290;2023-10-09T03:21:15;0.50;;;0.50;;
6551;SDS011;3309;48.708;9.290;2023-10-09T03:23:42;0.60;;;0.60;;
6551;SDS011;3309;48.708;9.290;2023-10-09T03:26:08;0.60;;;0.60;;
6551;SDS011;3309;48.708;9.290;2023-10-09T03:28:35;0.60;;;0.60;;
6551;SDS011;3309;48.708;9.290;2023-10-09T03:31:01;0.60;;;0.60;;
6551;SDS011;3309;48.708;9.290;2023-10-09T03:33:28;0.60;;;0.60;;
6551;SDS011;3309;48.708;9.290;2023-10-09T03:36:00;0.60;;;0.60;;
6551;SDS011;3309;48.708;9.290;2023-10-09T03:38:26;0.60;;;0.60;;
6551;SDS011;3309;48.708;9.290;2023-10-09T03:41:01;0.60;;;0.60;;
6551;SDS011;3309;48.708;9.290;2023-10-09T03:43:30;0.50;;;0.50;;
6551;SDS011;3309;48.708;9.290;2023-10-09T03:45:59;0.60;;;0.60;;
6551;SDS011;3309;48.708;9.290;2023-10-09T03:48:28;0.50;;;0.50;;
6551;SDS011;3309;48.708;9.290;2023-10-09T03:51:00;0.70;;;0.70;;
6551;SDS011;3309;48.708;9.290;2023-10-09T03:53:46;0.50;;;0.50;;
6551;SDS011;3309;48.708;9.290;2023-10-09T03:56:12;0.50;;;0.50;;
6551;SDS011;3309;48.708;9.290;2023-10-09T03:58:48;0.60;;;0.60;;
6551;SDS011;3309;48.708;9.290;2023-10-09T04:01:15;0.50;;;0.50;;
6551;SDS011;3309;48.708;9.290;2023-10-09T04:03:50;0.60;;;0.60;;
6551;SDS011;3309;48.708;9.290;2023-10-09T04:06:22;0.53;;;0.53;;
6551;SDS011;3309;48.708;9.290;2023-10-09T04:08:53;0.50;;;0.50;;
6551;SDS011;3309;48.708;9.290;2023-10-09T04:11:19;0.57;;;0.57;;
6551;SDS011;3309;48.708;9.290;2023-10-09T04:13:48;0.60;;;0.60;;
6551;SDS011;3309;48.708;9.290;2023-10-09T04:16:18;0.60;;;0.60;;
6551;SDS011;3309;48.708;9.290;2023-10-09T04:18:57;0.53;;;0.53;;
6551;SDS011;3309;48.708;9.290;2023-10-09T04:21:24;0.60;;;0.60;;
6551;SDS011;3309;48.708;9.290;2023-10-09T04:24:08;0.60;;;0.60;;
6551;SDS011;3309;48.708;9.290;2023-10-09T04:26:37;0.60;;;0.60;;
6551;SDS011;3309;48.708;9.290;2023-10-09T04:29:05;0.60;;;0.60;;
6551;SDS011;3309;48.708;9.290;2023-10-09T04:31:31;0.50;;;0.50;;
6551;SDS011;3309;48.708;9.290;2023-10-09T04:33:59;0.60;;;0.60;;
6551;SDS011;3309;48.708;9.290;2023-10-09T04:36:44;0.50;;;0.50;;
6551;SDS011;3309;48.708;9.290;2023-10-09T04:39:22;0.40;;;0.40;;
6551;SDS011;3309;48.708;9.290;2023-10-09T04:41:54;0.50;;;0.50;;
6551;SDS011;3309;48.708;9.290;2023-10-09T04:44:39;0.50;;;0.50;;
6551;SDS011;3309;48.708;9.290;2023-10-09T04:47:16;0.63;;;0.63;;
6551;SDS011;3309;48.708;9.290;2023-10-09T04:49:42;0.60;;;0.60;;
6551;SDS011;3309;48.708;9.290;2023-10-09T04:52:18;0.50;;;0.50;;
6551;SDS011;3309;48.708;9.290;2023-10-09T04:54:53;0.60;;;0.60;;
6551;SDS011;3309;48.708;9.290;2023-10-09T04:57:44;0.50;;;0.50;;
6551;SDS011;3309;48.708;9.290;2023-10-09T05:00:11;0.50;;;0.50;;
6551;SDS011;3309;48.708;9.290;2023-10-09T05:02:57;0.50;;;0.50;;
6551;SDS011;3309;48.708;9.290;2023-10-09T05:05:27;0.60;;;0.60;;
6551;SDS011;3309;48.708;9.290;2023-10-09T05:08:06;0.60;;;0.60;;
6551;SDS011;3309;48.708;9.290;2023-10-09T05:10:45;0.50;;;0.50;;
6551;SDS011;3309;48.708;9.290;2023-10-09T05:13:30;0.67;;;0.67;;
6551;SDS011;3309;48.708;9.290;2023-10-09T05:16:09;0.60;;;0.60;;
6551;SDS011;3309;48.708;9.290;2023-10-09T05:18:44;0.50;;;0.50;;
6551;SDS011;3309;48.708;9.290;2023-10-09T05:21:11;0.50;;;0.50;;
6551;SDS011;3309;48.708;9.290;2023-10-09T05:23:37;0.60;;;0.60;;
6551;SDS011;3309;48.708;9.290;2023-10-09T05:26:09;0.60;;;0.60;;
6551;SDS011;3309;48.708;9.290;2023-10-09T05:28:54;0.60;;;0.60;;
6551;SDS011;3309;48.708;9.290;2023-10-09T05:31:23;0.50;;;0.50;;
6551;SDS011;3309;48.708;9.290;2023-10-09T05:34:07;0.60;;;0.60;;
6551;SDS011;3309;48.708;9.290;2023-10-09T05:36:37;0.60;;;0.60;;
6551;SDS011;3309;48.708;9.290;2023-10-09T05:39:03;0.50;;;0.50;;
6551;SDS011;3309;48.708;9.290;2023-10-09T05:42:05;0.60;;;0.60;;
6551;SDS011;3309;48.708;9.290;2023-10-09T05:44:43;0.50;;;0.50;;
6551;SDS011;3309;48.708;9.290;2023-10-09T05:50:44;0.60;;;0.60;;
6551;SDS011;3309;48.708;9.290;2023-10-09T05:53:30;0.50;;;0.50;;
6551;SDS011;3309;48.708;9.290;2023-10-09T05:55:59;0.60;;;0.60;;
6551;SDS011;3309;48.708;9.290;2023-10-09T05:58:44;0.60;;;0.60;;
6551;SDS011;3309;48.708;9.290;2023-10-09T06:01:31;0.63;;;0.63;;
6551;SDS011;3309;48.708;9.290;2023-10-09T06:04:16;0.60;;;0.60;;
6551;SDS011;3309;48.708;9.290;2023-10-09T06:06:44;0.53;;;0.53;;
6551;SDS011;3309;48.708;9.290;2023-10-09T06:09:14;0.60;;;0.60;;
6551;SDS011;3309;48.708;9.290;2023-10-09T06:11:44;0.70;;;0.70;;
6551;SDS011;3309;48.708;9.290;2023-10-09T06:14:17;0.70;;;0.70;;
6551;SDS011;3309;48.708;9.290;2023-10-09T06:17:01;0.50;;;0.50;;
6551;SDS011;3309;48.708;9.290;2023-10-09T06:19:36;0.50;;;0.50;;
6551;SDS011;3309;48.708;9.290;2023-10-09T06:22:09;0.67;;;0.67;;
6551;SDS011;3309;48.708;9.290;2023-10-09T06:25:05;0.53;;;0.53;;
6551;SDS011;3309;48.708;9.290;2023-10-09T06:27:36;0.50;;;0.50;;
6551;SDS011;3309;48.708;9.290;2023-10-09T06:30:02;0.60;;;0.60;;
6551;SDS011;3309;48.708;9.290;2023-10-09T06:32:37;0.50;;;0.50;;
6551;SDS011;3309;48.708;9.290;2023-10-09T06:35:15;0.50;;;0.50;;
6551;SDS011;3309;48.708;9.290;2023-10-09T06:37:42;0.50;;;0.50;;
6551;SDS011;3309;48.708;9.290;2023-10-09T06:40:36;0.60;;;0.60;;
6551;SDS011;3309;48.708;9.290;2023-10-09T06:43:18;0.50;;;0.50;;
6551;SDS011;3309;48.708;9.290;2023-10-09T06:45:49;0.47;;;0.47;;
6551;SDS011;3309;48.708;9.290;2023-10-09T06:48:34;0.60;;;0.60;;
6551;SDS011;3309;48.708;9.290;2023-10-09T06:51:13;0.67;;;0.67;;
6551;SDS011;3309;48.708;9.290;2023-10-09T06:53:49;0.60;;;0.60;;
6551;SDS011;3309;48.708;9.290;2023-10-09T06:56:22;0.50;;;0.50;;
6551;SDS011;3309;48.708;9.290;2023-10-09T06:58:49;0.50;;;0.50;;
6551;SDS011;3309;48.708;9.290;2023-10-09T07:01:19;0.40;;;0.40;;
6551;SDS011;3309;48.708;9.290;2023-10-09T07:04:05;0.40;;;0.40;;
6551;SDS011;3309;48.708;9.290;2023-10-09T07:06:50;0.50;;;0.50;;
6551;SDS011;3309;48.708;9.290;2023-10-09T07:09:17;0.50;;;0.50;;
6551;SDS011;3309;48.708;9.290;2023-10-09T07:11:50;0.50;;;0.50;;
6551;SDS011;3309;48.708;9.290;2023-10-09T07:14:23;0.40;;;0.40;;
6551;SDS011;3309;48.708;9.290;2023-10-09T07:17:04;0.50;;;0.50;;
6551;SDS011;3309;48.708;9.290;2023-10-09T07:19:50;0.47;;;0.47;;
6551;SDS011;3309;48.708;9.290;2023-10-09T07:22:16;0.40;;;0.40;;
6551;SDS011;3309;48.708;9.290;2023-10-09T07:24:45;0.40;;;0.40;;
6551;SDS011;3309;48.708;9.290;2023-10-09T07:27:27;0.50;;;0.50;;
6551;SDS011;3309;48.708;9.290;2023-10-09T07:30:09;0.57;;;0.57;;
6551;SDS011;3309;48.708;9.290;2023-10-09T07:32:55;0.50;;;0.50;;
6551;SDS011;3309;48.708;9.290;2023-10-09T07:35:30;0.50;;;0.50;;
6551;SDS011;3309;48.708;9.290;2023-10-09T07:38:21;0.50;;;0.50;;
6551;SDS011;3309;48.708;9.290;2023-10-09T07:40:48;0.50;;;0.50;;
6551;SDS011;3309;48.708;9.290;2023-10-09T07:43:24;0.50;;;0.50;;
6551;SDS011;3309;48.708;9.290;2023-10-09T07:46:17;0.50;;;0.50;;
6551;SDS011;3309;48.708;9.290;2023-10-09T07:48:58;0.50;;;0.50;;
6551;SDS011;3309;48.708;9.290;2023-10-09T07:51:25;0.40;;;0.40;;
6551;SDS011;3309;48.708;9.290;2023-10-09T07:53:58;0.60;;;0.60;;
6551;SDS011;3309;48.708;9.290;2023-10-09T07:56:48;0.40;;;0.40;;
6551;SDS011;3309;48.708;9.290;2023-10-09T07:59:18;0.60;;;0.60;;
6551;SDS011;3309;48.708;9.290;2023-10-09T08:01:44;0.60;;;0.60;;
6551;SDS011;3309;48.708;9.290;2023-10-09T08:04:23;0.50;;;0.50;;
6551;SDS011;3309;48.708;9.290;2023-10-09T08:07:06;0.50;;;0.50;;
6551;SDS011;3309;48.708;9.290;2023-10-09T08:09:34;0.37;;;0.37;;
6551;SDS011;3309;48.708;9.290;2023-10-09T08:12:11;0.33;;;0.33;;
6551;SDS011;3309;48.708;9.290;2023-10-09T08:15:01;0.40;;;0.40;;
6551;SDS011;3309;48.708;9.290;2023-10-09T08:20:31;0.40;;;0.40;;
6551;SDS011;3309;48.708;9.290;2023-10-09T08:23:17;0.40;;;0.40;;
6551;SDS011;3309;48.708;9.290;2023-10-09T08:26:11;0.60;;;0.60;;
6551;SDS011;3309;48.708;9.290;2023-10-09T08:28:38;0.50;;;0.50;;
6551;SDS011;3309;48.708;9.290;2023-10-09T08:31:17;0.40;;;0.40;;
6551;SDS011;3309;48.708;9.290;2023-10-09T08:34:09;0.50;;;0.50;;
6551;SDS011;3309;48.708;9.290;2023-10-09T08:36:48;0.40;;;0.40;;
6551;SDS011;3309;48.708;9.290;2023-10-09T08:39:18;0.30;;;0.30;;
6551;SDS011;3309;48.708;9.290;2023-10-09T08:41:50;0.60;;;0.60;;
6551;SDS011;3309;48.708;9.290;2023-10-09T08:44:23;0.30;;;0.30;;
6551;SDS011;3309;48.708;9.290;2023-10-09T08:46:51;0.33;;;0.33;;
6551;SDS011;3309;48.708;9.290;2023-10-09T08:49:18;0.40;;;0.40;;
6551;SDS011;3309;48.708;9.290;2023-10-09T08:51:46;0.40;;;0.40;;
6551;SDS011;3309;48.708;9.290;2023-10-09T08:54:13;0.40;;;0.40;;
6551;SDS011;3309;48.708;9.290;2023-10-09T08:56:40;0.50;;;0.50;;
6551;SDS011;3309;48.708;9.290;2023-10-09T08:59:14;0.40;;;0.40;;
6551;SDS011;3309;48.708;9.290;2023-10-09T09:01:43;0.47;;;0.47;;
6551;SDS011;3309;48.708;9.290;2023-10-09T09:04:09;0.47;;;0.47;;
6551;SDS011;3309;48.708;9.290;2023-10-09T09:06:38;0.40;;;0.40;;
6551;SDS011;3309;48.708;9.290;2023-10-09T09:09:12;0.40;;;0.40;;
6551;SDS011;3309;48.708;9.290;2023-10-09T09:11:41;0.50;;;0.50;;
6551;SDS011;3309;48.708;9.290;2023-10-09T09:14:14;0.30;;;0.30;;
6551;SDS011;3309;48.708;9.290;2023-10-09T09:16:44;0.40;;;0.40;;
6551;SDS011;3309;48.708;9.290;2023-10-09T09:19:13;0.40;;;0.40;;
6551;SDS011;3309;48.708;9.290;2023-10-09T09:21:43;0.50;;;0.50;;
6551;SDS011;3309;48.708;9.290;2023-10-09T09:24:14;0.43;;;0.43;;
6551;SDS011;3309;48.708;9.290;2023-10-09T09:26:42;0.40;;;0.40;;
6551;SDS011;3309;48.708;9.290;2023-10-09T09:29:14;0.30;;;0.30;;
6551;SDS011;3309;48.708;9.290;2023-10-09T09:31:56;0.30;;;0.30;;
6551;SDS011;3309;48.708;9.290;2023-10-09T09:34:45;0.30;;;0.30;;
6551;SDS011;3309;48.708;9.290;2023-10-09T09:37:24;0.30;;;0.30;;
6551;SDS011;3309;48.708;9.290;2023-10-09T09:40:02;0.37;;;0.37;;
6551;SDS011;3309;48.708;9.290;2023-10-09T09:42:40;0.40;;;0.40;;
6551;SDS011;3309;48.708;9.290;2023-10-09T09:45:11;0.40;;;0.40;;
6551;SDS011;3309;48.708;9.290;2023-10-09T09:47:38;0.30;;;0.30;;
6551;SDS011;3309;48.708;9.290;2023-10-09T09:50:05;0.30;;;0.30;;
6551;SDS011;3309;48.708;9.290;2023-10-09T09:52:47;0.30;;;0.30;;
6551;SDS011;3309;48.708;9.290;2023-10-09T09:55:18;0.30;;;0.30;;
6551;SDS011;3309;48.708;9.290;2023-10-09T09:57:47;0.37;;;0.37;;
6551;SDS011;3309;48.708;9.290;2023-10-09T10:00:17;0.30;;;0.30;;
6551;SDS011;3309;48.708;9.290;2023-10-09T10:03:11;0.30;;;0.30;;
6551;SDS011;3309;48.708;9.290;2023-10-09T10:05:38;0.30;;;0.30;;
6551;SDS011;3309;48.708;9.290;2023-10-09T10:08:05;0.30;;;0.30;;
6551;SDS011;3309;48.708;9.290;2023-10-09T10:10:39;0.30;;;0.30;;
6551;SDS011;3309;48.708;9.290;2023-10-09T10:13:17;0.33;;;0.33;;
6551;SDS011;3309;48.708;9.290;2023-10-09T10:18:22;0.40;;;0.40;;
6551;SDS011;3309;48.708;9.290;2023-10-09T10:23:41;0.30;;;0.30;;
6551;SDS011;3309;48.708;9.290;2023-10-09T10:26:20;0.40;;;0.40;;
6551;SDS011;3309;48.708;9.290;2023-10-09T10:31:57;0.33;;;0.33;;
6551;SDS011;3309;48.708;9.290;2023-10-09T10:34:26;0.30;;;0.30;;
6551;SDS011;3309;48.708;9.290;2023-10-09T10:37:01;0.40;;;0.40;;
6551;SDS011;3309;48.708;9.290;2023-10-09T10:39:31;0.30;;;0.30;;
6551;SDS011;3309;48.708;9.290;2023-10-09T10:42:09;0.30;;;0.30;;
6551;SDS011;3309;48.708;9.290;2023-10-09T10:44:54;0.40;;;0.40;;
6551;SDS011;3309;48.708;9.290;2023-10-09T10:47:25;0.30;;;0.30;;
6551;SDS011;3309;48.708;9.290;2023-10-09T10:49:57;0.50;;;0.50;;
6551;SDS011;3309;48.708;9.290;2023-10-09T10:52:24;0.40;;;0.40;;
6551;SDS011;3309;48.708;9.290;2023-10-09T10:55:13;0.30;;;0.30;;
6551;SDS011;3309;48.708;9.290;2023-10-09T10:58:03;0.40;;;0.40;;
6551;SDS011;3309;48.708;9.290;2023-10-09T11:00:38;0.37;;;0.37;;
6551;SDS011;3309;48.708;9.290;2023-10-09T11:03:23;0.40;;;0.40;;
6551;SDS011;3309;48.708;9.290;2023-10-09T11:05:54;0.30;;;0.30;;
6551;SDS011;3309;48.708;9.290;2023-10-09T11:08:23;0.40;;;0.40;;
6551;SDS011;3309;48.708;9.290;2023-10-09T11:11:09;0.30;;;0.30;;
6551;SDS011;3309;48.708;9.290;2023-10-09T11:13:40;0.30;;;0.30;;
6551;SDS011;3309;48.708;9.290;2023-10-09T11:16:18;0.30;;;0.30;;
6551;SDS011;3309;48.708;9.290;2023-10-09T11:19:07;0.30;;;0.30;;
6551;SDS011;3309;48.708;9.290;2023-10-09T11:21:51;0.30;;;0.30;;
6551;SDS011;3309;48.708;9.290;2023-10-09T11:24:25;0.40;;;0.40;;
6551;SDS011;3309;48.708;9.290;2023-10-09T11:26:51;0.30;;;0.30;;
6551;SDS011;3309;48.708;9.290;2023-10-09T11:29:21;0.40;;;0.40;;
6551;SDS011;3309;48.708;9.290;2023-10-09T11:32:06;0.40;;;0.40;;
6551;SDS011;3309;48.708;9.290;2023-10-09T11:34:36;0.40;;;0.40;;
6551;SDS011;3309;48.708;9.290;2023-10-09T11:37:03;0.30;;;0.30;;
6551;SDS011;3309;48.708;9.290;2023-10-09T11:39:31;0.40;;;0.40;;
6551;SDS011;3309;48.708;9.290;2023-10-09T11:42:06;0.30;;;0.30;;
6551;SDS011;3309;48.708;9.290;2023-10-09T11:44:38;0.40;;;0.40;;
6551;SDS011;3309;48.708;9.290;2023-10-09T11:47:06;0.30;;;0.30;;
6551;SDS011;3309;48.708;9.290;2023-10-09T11:49:55;0.30;;;0.30;;
6551;SDS011;3309;48.708;9.290;2023-10-09T11:52:27;0.30;;;0.30;;
6551;SDS011;3309;48.708;9.290;2023-10-09T11:54:56;0.40;;;0.40;;
6551;SDS011;3309;48.708;9.290;2023-10-09T11:57:23;0.40;;;0.40;;
6551;SDS011;3309;48.708;9.290;2023-10-09T11:59:55;0.30;;;0.30;;
6551;SDS011;3309;48.708;9.290;2023-10-09T12:02:21;0.43;;;0.43;;
6551;SDS011;3309;48.708;9.290;2023-10-09T12:04:47;0.30;;;0.30;;
6551;SDS011;3309;48.708;9.290;2023-10-09T12:07:14;0.30;;;0.30;;
6551;SDS011;3309;48.708;9.290;2023-10-09T12:09:40;0.30;;;0.30;;
6551;SDS011;3309;48.708;9.290;2023-10-09T12:12:06;0.30;;;0.30;;
6551;SDS011;3309;48.708;9.290;2023-10-09T12:14:35;0.30;;;0.30;;
6551;SDS011;3309;48.708;9.290;2023-10-09T12:17:05;0.30;;;0.30;;
6551;SDS011;3309;48.708;9.290;2023-10-09T12:19:34;0.30;;;0.30;;
6551;SDS011;3309;48.708;9.290;2023-10-09T12:22:01;0.30;;;0.30;;
6551;SDS011;3309;48.708;9.290;2023-10-09T12:24:28;0.40;;;0.40;;
6551;SDS011;3309;48.708;9.290;2023-10-09T12:26:55;0.33;;;0.33;;
6551;SDS011;3309;48.708;9.290;2023-10-09T12:29:21;0.30;;;0.30;;
6551;SDS011;3309;48.708;9.290;2023-10-09T12:31:48;0.50;;;0.50;;
6551;SDS011;3309;48.708;9.290;2023-10-09T12:34:23;0.30;;;0.30;;
6551;SDS011;3309;48.708;9.290;2023-10-09T12:36:51;0.40;;;0.40;;
6551;SDS011;3309;48.708;9.290;2023-10-09T12:39:17;0.33;;;0.33;;
6551;SDS011;3309;48.708;9.290;2023-10-09T12:41:44;0.40;;;0.40;;
6551;SDS011;3309;48.708;9.290;2023-10-09T12:44:10;0.43;;;0.43;;
6551;SDS011;3309;48.708;9.290;2023-10-09T12:46:40;0.30;;;0.30;;
6551;SDS011;3309;48.708;9.290;2023-10-09T12:49:06;0.40;;;0.40;;
6551;SDS011;3309;48.708;9.290;2023-10-09T12:51:32;0.40;;;0.40;;
6551;SDS011;3309;48.708;9.290;2023-10-09T12:53:58;0.40;;;0.40;;
6551;SDS011;3309;48.708;9.290;2023-10-09T12:56:26;0.40;;;0.40;;
6551;SDS011;3309;48.708;9.290;2023-10-09T12:58:59;0.40;;;0.40;;
6551;SDS011;3309;48.708;9.290;2023-10-09T13:01:26;0.50;;;0.50;;
6551;SDS011;3309;48.708;9.290;2023-10-09T13:03:57;0.40;;;0.40;;
6551;SDS011;3309;48.708;9.290;2023-10-09T13:06:25;0.40;;;0.40;;
6551;SDS011;3309;48.708;9.290;2023-10-09T13:08:51;0.50;;;0.50;;
6551;SDS011;3309;48.708;9.290;2023-10-09T13:11:17;0.40;;;0.40;;
6551;SDS011;3309;48.708;9.290;2023-10-09T13:13:46;0.43;;;0.43;;
6551;SDS011;3309;48.708;9.290;2023-10-09T13:16:16;0.30;;;0.30;;
6551;SDS011;3309;48.708;9.290;2023-10-09T13:18:58;0.40;;;0.40;;
6551;SDS011;3309;48.708;9.290;2023-10-09T13:21:34;0.40;;;0.40;;
6551;SDS011;3309;48.708;9.290;2023-10-09T13:24:03;0.50;;;0.50;;
6551;SDS011;3309;48.708;9.290;2023-10-09T13:26:29;0.40;;;0.40;;
6551;SDS011;3309;48.708;9.290;2023-10-09T13:28:56;0.50;;;0.50;;
6551;SDS011;3309;48.708;9.290;2023-10-09T13:31:22;0.60;;;0.60;;
6551;SDS011;3309;48.708;9.290;2023-10-09T13:33:52;0.43;;;0.43;;
6551;SDS011;3309;48.708;9.290;2023-10-09T13:36:20;0.47;;;0.47;;
6551;SDS011;3309;48.708;9.290;2023-10-09T13:39:07;0.50;;;0.50;;
6551;SDS011;3309;48.708;9.290;2023-10-09T13:41:52;0.57;;;0.57;;
6551;SDS011;3309;48.708;9.290;2023-10-09T13:44:27;0.60;;;0.60;;
6551;SDS011;3309;48.708;9.290;2023-10-09T13:46:54;0.50;;;0.50;;
6551;SDS011;3309;48.708;9.290;2023-10-09T13:49:21;0.40;;;0.40;;
6551;SDS011;3309;48.708;9.290;2023-10-09T13:51:55;0.50;;;0.50;;
6551;SDS011;3309;48.708;9.290;2023-10-09T13:54:22;0.50;;;0.50;;
6551;SDS011;3309;48.708;9.290;2023-10-09T13:56:57;0.50;;;0.50;;
6551;SDS011;3309;48.708;9.290;2023-10-09T13:59:23;0.53;;;0.53;;
6551;SDS011;3309;48.708;9.290;2023-10-09T14:01:52;0.47;;;0.47;;
6551;SDS011;3309;48.708;9.290;2023-10-09T14:04:22;0.60;;;0.60;;
6551;SDS011;3309;48.708;9.290;2023-10-09T14:06:48;0.70;;;0.70;;
6551;SDS011;3309;48.708;9.290;2023-10-09T14:09:21;0.60;;;0.60;;
6551;SDS011;3309;48.708;9.290;2023-10-09T14:11:57;0.50;;;0.50;;
6551;SDS011;3309;48.708;9.290;2023-10-09T14:14:45;0.53;;;0.53;;
6551;SDS011;3309;48.708;9.290;2023-10-09T14:17:19;0.47;;;0.47;;
6551;SDS011;3309;48.708;9.290;2023-10-09T14:19:49;0.50;;;0.50;;
6551;SDS011;3309;48.708;9.290;2023-10-09T14:22:16;0.60;;;0.60;;
6551;SDS011;3309;48.708;9.290;2023-10-09T14:24:43;0.40;;;0.40;;
6551;SDS011;3309;48.708;9.290;2023-10-09T14:27:15;0.43;;;0.43;;
6551;SDS011;3309;48.708;9.290;2023-10-09T14:29:44;0.50;;;0.50;;
6551;SDS011;3309;48.708;9.290;2023-10-09T14:32:10;0.40;;;0.40;;
6551;SDS011;3309;48.708;9.290;2023-10-09T14:34:40;0.30;;;0.30;;
6551;SDS011;3309;48.708;9.290;2023-10-09T14:37:15;0.50;;;0.50;;
6551;SDS011;3309;48.708;9.290;2023-10-09T14:39:41;0.40;;;0.40;;
6551;SDS011;3309;48.708;9.290;2023-10-09T14:42:08;0.50;;;0.50;;
6551;SDS011;3309;48.708;9.290;2023-10-09T14:44:37;0.50;;;0.50;;
6551;SDS011;3309;48.708;9.290;2023-10-09T14:47:06;0.40;;;0.40;;
6551;SDS011;3309;48.708;9.290;2023-10-09T14:49:35;0.40;;;0.40;;
6551;SDS011;3309;48.708;9.290;2023-10-09T14:52:08;0.40;;;0.40;;
6551;SDS011;3309;48.708;9.290;2023-10-09T14:54:35;0.40;;;0.40;;
6551;SDS011;3309;48.708;9.290;2023-10-09T14:57:01;0.50;;;0.50;;
6551;SDS011;3309;48.708;9.290;2023-10-09T14:59:31;0.30;;;0.30;;
6551;SDS011;3309;48.708;9.290;2023-10-09T15:01:58;0.50;;;0.50;;
6551;SDS011;3309;48.708;9.290;2023-10-09T15:04:24;0.40;;;0.40;;
6551;SDS011;3309;48.708;9.290;2023-10-09T15:06:53;0.30;;;0.30;;
6551;SDS011;3309;48.708;9.290;2023-10-09T15:09:19;0.40;;;0.40;;
6551;SDS011;3309;48.708;9.290;2023-10-09T15:11:50;0.40;;;0.40;;
6551;SDS011;3309;48.708;9.290;2023-10-09T15:14:17;0.47;;;0.47;;
6551;SDS011;3309;48.708;9.290;2023-10-09T15:16:49;0.40;;;0.40;;
6551;SDS011;3309;48.708;9.290;2023-10-09T15:19:15;0.30;;;0.30;;
6551;SDS011;3309;48.708;9.290;2023-10-09T15:21:41;0.50;;;0.50;;
6551;SDS011;3309;48.708;9.290;2023-10-09T15:24:15;0.50;;;0.50;;
6551;SDS011;3309;48.708;9.290;2023-10-09T15:26:47;0.50;;;0.50;;
6551;SDS011;3309;48.708;9.290;2023-10-09T15:29:22;0.37;;;0.37;;
6551;SDS011;3309;48.708;9.290;2023-10-09T15:31:53;0.40;;;0.40;;
6551;SDS011;3309;48.708;9.290;2023-10-09T15:34:18;0.40;;;0.40;;
6551;SDS011;3309;48.708;9.290;2023-10-09T15:36:46;0.40;;;0.40;;
6551;SDS011;3309;48.708;9.290;2023-10-09T15:39:12;0.30;;;0.30;;
6551;SDS011;3309;48.708;9.290;2023-10-09T15:41:38;0.50;;;0.50;;
6551;SDS011;3309;48.708;9.290;2023-10-09T15:44:04;0.40;;;0.40;;
6551;SDS011;3309;48.708;9.290;2023-10-09T15:46:31;0.30;;;0.30;;
6551;SDS011;3309;48.708;9.290;2023-10-09T15:48:59;0.40;;;0.40;;
6551;SDS011;3309;48.708;9.290;2023-10-09T15:51:25;0.40;;;0.40;;
6551;SDS011;3309;48.708;9.290;2023-10-09T15:53:51;0.30;;;0.30;;
6551;SDS011;3309;48.708;9.290;2023-10-09T15:56:17;0.30;;;0.30;;
6551;SDS011;3309;48.708;9.290;2023-10-09T15:58:45;0.40;;;0.40;;
6551;SDS011;3309;48.708;9.290;2023-10-09T16:01:16;0.40;;;0.40;;
6551;SDS011;3309;48.708;9.290;2023-10-09T16:03:45;0.30;;;0.30;;